Time;durP1;ratioP1;P1;durP2;ratioP2;P2;SDS_P1;SDS_P2;PMS_P1;PMS_P2;Temp;Humidity;BMP_temperature;BMP_pressure;BME280_temperature;BME280_humidity;BME280_pressure;Samples;Min_cycle;Max_cycle;Signal;HPM_P1;HPM_P2
2021/08/28 00:00:13;;;;;;;9.66;6.66;;;;;;;;;;358053;148;857282;-59
2021/08/28 00:01:14;;;;;;;9.00;6.67;;;;;;;;;;358791;147;857263;-59
2021/08/28 00:02:19;;;;;;;12.66;6.11;;;;;;;;;;359114;148;858249;-59
2021/08/28 00:03:20;;;;;;;12.11;6.49;;;;;;;;;;359948;149;857311;-59
2021/08/28 00:04:21;;;;;;;10.47;5.83;;;;;;;;;;359517;150;858788;-59
2021/08/28 00:05:23;;;;;;;12.00;5.76;;;;;;;;;;359187;148;857274;-59
2021/08/28 00:06:27;;;;;;;8.65;5.40;;;;;;;;;;358558;147;859100;-59
2021/08/28 00:07:28;;;;;;;13.34;5.71;;;;;;;;;;359609;149;857337;-59
2021/08/28 00:08:30;;;;;;;15.54;6.26;;;;;;;;;;358467;147;865740;-59
2021/08/28 00:09:31;;;;;;;14.29;5.64;;;;;;;;;;357656;148;857519;-59
2021/08/28 00:10:35;;;;;;;18.82;5.89;;;;;;;;;;360589;148;857234;-59
2021/08/28 00:11:36;;;;;;;10.76;5.24;;;;;;;;;;359220;149;857306;-60
2021/08/28 00:12:38;;;;;;;13.24;5.01;;;;;;;;;;359667;148;857212;-60
2021/08/28 00:13:39;;;;;;;14.91;5.71;;;;;;;;;;359057;149;857255;-60
2021/08/28 00:14:41;;;;;;;13.87;5.62;;;;;;;;;;363407;148;857231;-59
2021/08/28 00:15:42;;;;;;;11.84;5.49;;;;;;;;;;359324;147;858965;-60
2021/08/28 00:16:46;;;;;;;13.69;5.99;;;;;;;;;;358373;148;857429;-60
2021/08/28 00:17:47;;;;;;;16.83;5.65;;;;;;;;;;362221;148;857216;-59
2021/08/28 00:18:49;;;;;;;20.04;5.44;;;;;;;;;;361997;147;866048;-59
2021/08/28 00:19:50;;;;;;;14.63;5.44;;;;;;;;;;359905;147;859336;-59
2021/08/28 00:20:52;;;;;;;17.96;5.37;;;;;;;;;;357278;148;857111;-59
2021/08/28 00:21:54;;;;;;;12.99;5.46;;;;;;;;;;360621;148;864969;-59
2021/08/28 00:22:55;;;;;;;15.59;5.49;;;;;;;;;;358156;148;857227;-59
2021/08/28 00:23:57;;;;;;;13.58;5.89;;;;;;;;;;358553;148;859070;-60
2021/08/28 00:24:58;;;;;;;8.19;5.21;;;;;;;;;;357954;148;865858;-60
2021/08/28 00:26:00;;;;;;;10.96;5.46;;;;;;;;;;361075;147;858831;-59
2021/08/28 00:27:02;;;;;;;8.53;5.34;;;;;;;;;;360390;147;857802;-60
2021/08/28 00:28:04;;;;;;;11.44;5.71;;;;;;;;;;355925;148;859048;-59
2021/08/28 00:29:06;;;;;;;12.52;6.03;;;;;;;;;;356015;147;864894;-59
2021/08/28 00:30:08;;;;;;;10.77;6.06;;;;;;;;;;359106;148;859137;-59
2021/08/28 00:31:10;;;;;;;10.10;5.75;;;;;;;;;;362050;147;857239;-59
2021/08/28 00:32:11;;;;;;;9.53;5.69;;;;;;;;;;357469;148;857218;-57
2021/08/28 00:33:14;;;;;;;12.84;5.59;;;;;;;;;;359447;147;857176;-58
2021/08/28 00:34:15;;;;;;;9.94;5.83;;;;;;;;;;358155;147;857274;-59
2021/08/28 00:35:17;;;;;;;14.87;5.93;;;;;;;;;;357256;148;857276;-58
2021/08/28 00:36:20;;;;;;;7.67;5.47;;;;;;;;;;361936;147;857423;-58
2021/08/28 00:37:21;;;;;;;19.34;7.00;;;;;;;;;;360015;147;857320;-58
2021/08/28 00:38:23;;;;;;;14.98;7.33;;;;;;;;;;356395;147;859112;-58
2021/08/28 00:39:25;;;;;;;9.20;6.41;;;;;;;;;;358121;148;858392;-58
2021/08/28 00:40:27;;;;;;;10.82;6.46;;;;;;;;;;360558;147;857458;-58
2021/08/28 00:41:28;;;;;;;12.58;6.37;;;;;;;;;;358337;147;857557;-58
2021/08/28 00:42:30;;;;;;;13.54;6.67;;;;;;;;;;359591;148;859656;-58
2021/08/28 00:43:31;;;;;;;10.73;6.47;;;;;;;;;;357728;147;857164;-57
2021/08/28 00:44:35;;;;;;;7.91;5.81;;;;;;;;;;359486;148;857178;-58
2021/08/28 00:45:38;;;;;;;10.09;6.04;;;;;;;;;;359285;148;857203;-58
2021/08/28 00:46:39;;;;;;;8.29;6.05;;;;;;;;;;363525;148;859121;-58
2021/08/28 00:47:43;;;;;;;8.66;5.89;;;;;;;;;;360702;147;858981;-58
2021/08/28 00:48:45;;;;;;;9.18;5.36;;;;;;;;;;358639;148;859234;-58
2021/08/28 00:49:46;;;;;;;8.38;4.30;;;;;;;;;;361064;148;859070;-58
2021/08/28 00:50:49;;;;;;;9.03;5.43;;;;;;;;;;357853;147;860413;-58
2021/08/28 00:51:51;;;;;;;6.52;5.37;;;;;;;;;;360954;147;858867;-58
2021/08/28 00:52:52;;;;;;;7.96;6.02;;;;;;;;;;362279;148;864625;-60
2021/08/28 00:53:54;;;;;;;8.05;5.51;;;;;;;;;;356020;147;857164;-60
2021/08/28 00:54:55;;;;;;;9.25;5.64;;;;;;;;;;360629;148;857058;-60
2021/08/28 00:55:57;;;;;;;9.48;5.80;;;;;;;;;;361541;147;857349;-61
2021/08/28 00:57:03;;;;;;;11.61;5.86;;;;;;;;;;355719;148;858119;-59
2021/08/28 00:58:04;;;;;;;9.27;5.44;;;;;;;;;;360709;147;859032;-60
2021/08/28 01:10:27;;;;;;;9.37;4.90;;;;;;;17.48;63.98;99490.41;371034;142;882239;-59
2021/08/28 01:11:36;;;;;;;7.16;4.84;;;;;;;17.38;63.58;99492.59;365928;147;857392;-58
2021/08/28 01:12:40;;;;;;;10.76;5.56;;;;;;;17.37;62.89;99462.11;363743;147;857132;-59
2021/08/28 01:13:44;;;;;;;8.61;4.85;;;;;;;17.37;62.89;99462.11;364684;147;857210;-60
2021/08/28 01:14:49;;;;;;;8.34;5.17;;;;;;;17.37;63.00;99490.03;359279;148;858095;-58
2021/08/28 01:15:50;;;;;;;8.71;4.84;;;;;;;17.35;62.86;99489.25;361809;147;865806;-58
2021/08/28 01:16:59;;;;;;;7.71;5.26;;;;;;;17.33;62.70;99483.23;353812;150;857334;-58
2021/08/28 01:18:00;;;;;;;6.56;4.81;;;;;;;17.32;62.90;99481.53;355440;147;858176;-58
2021/08/28 01:19:02;;;;;;;7.74;5.11;;;;;;;17.32;63.15;99492.00;365590;147;857242;-58
2021/08/28 01:20:08;;;;;;;8.96;5.60;;;;;;;17.31;63.40;99487.67;361386;146;865721;-59
2021/08/28 01:21:26;;;;;;;9.00;5.29;;;;;;;17.27;63.90;99493.96;360696;147;857828;-59
2021/08/28 01:22:28;;;;;;;8.64;5.20;;;;;;;17.27;63.90;99493.96;361793;147;857492;-59
2021/08/28 01:23:31;;;;;;;10.21;5.64;;;;;;;17.26;64.16;99500.11;363927;147;857308;-58
2021/08/28 01:24:33;;;;;;;6.55;4.83;;;;;;;17.24;63.82;99502.81;359383;146;866644;-59
2021/08/28 01:25:35;;;;;;;10.57;5.23;;;;;;;17.21;63.84;99498.54;363847;148;857239;-60
2021/08/28 01:26:42;;;;;;;8.01;5.06;;;;;;;17.21;63.99;99501.16;363217;147;865787;-59
2021/08/28 01:27:49;;;;;;;11.81;5.01;;;;;;;17.19;64.15;99496.92;359532;146;864749;-58
2021/08/28 01:28:56;;;;;;;8.85;5.13;;;;;;;17.19;64.18;99508.22;357814;150;857238;-60
2021/08/28 01:29:58;;;;;;;7.13;4.94;;;;;;;;;;355691;147;858695;-60
2021/08/28 01:31:00;;;;;;;6.72;5.06;;;;;;;;;;355840;149;857301;-58
2021/08/28 01:32:01;;;;;;;8.69;4.84;;;;;;;;;;354927;151;858870;-58
2021/08/28 01:33:03;;;;;;;5.93;4.70;;;;;;;;;;354451;147;859241;-58
2021/08/28 01:34:04;;;;;;;9.14;4.69;;;;;;;;;;349838;152;866605;-60
2021/08/28 01:35:06;;;;;;;6.46;4.77;;;;;;;;;;350708;151;866404;-58
2021/08/28 01:36:09;;;;;;;7.20;5.19;;;;;;;;;;358493;149;858825;-59
2021/08/28 01:37:11;;;;;;;13.88;5.03;;;;;;;;;;356630;147;857196;-58
2021/08/28 01:38:13;;;;;;;7.22;4.66;;;;;;;;;;357156;150;857741;-59
2021/08/28 01:39:14;;;;;;;6.08;4.63;;;;;;;;;;353861;150;857204;-59
2021/08/28 01:40:17;;;;;;;7.81;4.79;;;;;;;;;;356530;150;867149;-59
2021/08/28 01:41:19;;;;;;;9.50;4.89;;;;;;;;;;356677;147;865788;-59
2021/08/28 01:42:20;;;;;;;6.84;4.97;;;;;;;;;;355990;150;861393;-59
2021/08/28 01:43:22;;;;;;;8.11;5.11;;;;;;;;;;351139;150;857354;-58
2021/08/28 01:44:23;;;;;;;9.34;4.76;;;;;;;;;;357035;147;857292;-59
2021/08/28 01:45:26;;;;;;;10.27;4.75;;;;;;;;;;357835;150;857319;-59
2021/08/28 01:46:27;;;;;;;9.79;4.71;;;;;;;;;;356289;150;857330;-58
2021/08/28 01:47:29;;;;;;;6.79;5.30;;;;;;;;;;356417;147;857265;-59
2021/08/28 01:48:32;;;;;;;7.49;4.95;;;;;;;;;;357806;150;857102;-58
2021/08/28 01:49:34;;;;;;;7.19;4.91;;;;;;;;;;356221;150;857174;-59
2021/08/28 01:50:35;;;;;;;10.42;4.87;;;;;;;;;;354506;150;857257;-59
2021/08/28 01:51:37;;;;;;;6.77;4.64;;;;;;;;;;353929;150;857332;-59
2021/08/28 01:52:39;;;;;;;6.81;4.29;;;;;;;;;;356507;150;857390;-59
2021/08/28 01:53:41;;;;;;;7.38;4.90;;;;;;;;;;356098;151;857254;-59
2021/08/28 01:54:43;;;;;;;8.11;4.81;;;;;;;;;;354880;148;857268;-58
2021/08/28 01:55:44;;;;;;;10.49;4.91;;;;;;;;;;356866;149;857730;-59
2021/08/28 01:56:46;;;;;;;7.04;4.84;;;;;;;;;;357836;150;866586;-59
2021/08/28 01:57:48;;;;;;;6.16;4.99;;;;;;;;;;357520;147;858978;-59
2021/08/28 01:58:50;;;;;;;6.04;4.30;;;;;;;;;;356819;147;858187;-58
2021/08/28 01:59:51;;;;;;;7.57;4.70;;;;;;;;;;355736;150;859766;-60
2021/08/28 02:00:54;;;;;;;6.13;4.66;;;;;;;;;;354649;149;858976;-59
2021/08/28 02:01:55;;;;;;;6.23;4.91;;;;;;;;;;355702;147;859236;-59
2021/08/28 02:02:57;;;;;;;7.55;5.29;;;;;;;;;;356294;150;859294;-59
2021/08/28 02:03:58;;;;;;;7.87;4.56;;;;;;;;;;353818;152;857230;-59
2021/08/28 02:05:00;;;;;;;7.24;5.20;;;;;;;;;;354363;150;857322;-58
2021/08/28 02:10:13;;;;;;;13.11;5.21;;;;;;;17.44;62.40;99452.20;372618;141;878681;-58
2021/08/28 02:11:31;;;;;;;7.92;4.88;;;;;;;17.40;62.69;99470.73;366038;147;857169;-59
2021/08/28 02:12:38;;;;;;;8.12;5.08;;;;;;;17.45;62.37;99468.77;365035;147;857290;-60
2021/08/28 02:13:46;;;;;;;9.13;5.12;;;;;;;17.45;62.64;99468.77;364741;146;858394;-61
2021/08/28 02:15:11;;;;;;;8.98;5.16;;;;;;;17.44;62.50;99469.69;365543;147;857130;-60
2021/08/28 02:16:16;;;;;;;8.48;5.17;;;;;;;17.45;62.50;99469.60;365846;146;859273;-59
2021/08/28 02:17:18;;;;;;;6.44;4.99;;;;;;;17.47;62.68;99472.17;363669;146;857728;-60
2021/08/28 02:18:26;;;;;;;9.03;4.84;;;;;;;17.49;63.01;99465.94;364911;146;858033;-59
2021/08/28 02:19:31;;;;;;;9.79;5.42;;;;;;;17.56;62.20;99468.31;365153;147;865877;-59
2021/08/28 02:20:37;;;;;;;7.05;4.71;;;;;;;17.56;62.20;99468.31;363651;146;858031;-58
2021/08/28 02:21:39;;;;;;;9.52;4.91;;;;;;;17.52;62.74;99457.11;363714;147;857087;-58
2021/08/28 02:22:44;;;;;;;8.16;5.34;;;;;;;17.51;62.55;99453.66;363559;147;864811;-58
2021/08/28 02:23:52;;;;;;;9.99;4.95;;;;;;;17.52;62.86;99446.64;364767;146;865027;-59
2021/08/28 02:24:58;;;;;;;6.77;4.98;;;;;;;17.57;62.68;99430.75;365524;147;865450;-60
2021/08/28 02:26:06;;;;;;;10.28;5.31;;;;;;;17.57;62.68;99430.75;365710;147;857671;-59
2021/08/28 02:27:21;;;;;;;7.73;5.03;;;;;;;17.51;62.65;99440.58;365248;146;857130;-58
2021/08/28 02:28:25;;;;;;;8.50;5.50;;;;;;;17.49;62.49;99437.14;361600;147;859533;-58
2021/08/28 02:29:31;;;;;;;7.86;5.02;;;;;;;17.49;62.49;99437.14;360931;147;858996;-59
2021/08/28 02:30:35;;;;;;;9.82;4.97;;;;;;;17.51;62.34;99444.94;358225;147;857809;-58
2021/08/28 02:31:41;;;;;;;12.65;5.10;;;;;;;17.53;62.32;99437.87;358978;147;857165;-58
2021/08/28 02:32:43;;;;;;;6.63;4.96;;;;;;;17.55;62.04;99443.05;352178;153;857235;-58
2021/08/28 02:33:45;;;;;;;7.37;5.39;;;;;;;17.57;62.09;99449.06;357618;147;859884;-56
2021/08/28 02:34:48;;;;;;;10.94;5.07;;;;;;;;;;357780;148;864813;-57
2021/08/28 02:35:49;;;;;;;7.67;4.73;;;;;;;;;;357744;148;858349;-57
2021/08/28 02:36:51;;;;;;;7.18;4.71;;;;;;;;;;355129;147;857348;-60
2021/08/28 02:37:52;;;;;;;7.56;5.06;;;;;;;;;;357818;147;864843;-60
2021/08/28 02:38:54;;;;;;;9.01;5.19;;;;;;;;;;358640;150;857204;-60
2021/08/28 02:39:55;;;;;;;7.06;5.26;;;;;;;;;;358150;150;857212;-60
2021/08/28 02:40:58;;;;;;;8.31;5.20;;;;;;;;;;349868;150;857075;-60
2021/08/28 02:42:00;;;;;;;7.14;4.78;;;;;;;;;;351838;150;857309;-61
2021/08/28 02:43:01;;;;;;;8.60;5.11;;;;;;;;;;359339;150;859466;-60
2021/08/28 02:44:03;;;;;;;9.07;5.04;;;;;;;;;;357190;150;865960;-60
2021/08/28 02:45:05;;;;;;;8.05;5.01;;;;;;;;;;355988;148;860033;-59
2021/08/28 02:46:07;;;;;;;8.97;5.35;;;;;;;;;;359354;148;858715;-61
2021/08/28 02:47:09;;;;;;;6.56;4.81;;;;;;;;;;359484;147;859489;-61
2021/08/28 02:48:11;;;;;;;6.60;3.76;;;;;;;;;;358516;147;857349;-60
2021/08/28 02:49:12;;;;;;;9.10;4.57;;;;;;;;;;356673;148;864734;-60
2021/08/28 02:50:15;;;;;;;9.99;4.86;;;;;;;;;;354205;147;857234;-59
2021/08/28 02:51:17;;;;;;;6.17;4.32;;;;;;;;;;355829;148;857750;-60
2021/08/28 02:52:18;;;;;;;9.48;4.83;;;;;;;;;;358389;148;857230;-60
2021/08/28 02:53:20;;;;;;;8.79;4.82;;;;;;;;;;357456;148;858011;-59
2021/08/28 02:54:22;;;;;;;7.52;4.65;;;;;;;;;;356778;148;864866;-60
2021/08/28 02:55:24;;;;;;;7.78;4.73;;;;;;;;;;358674;147;857356;-60
2021/08/28 02:56:26;;;;;;;10.44;4.63;;;;;;;;;;355823;149;857752;-59
2021/08/28 02:57:27;;;;;;;6.38;4.64;;;;;;;;;;356611;147;857670;-60
2021/08/28 02:58:29;;;;;;;7.00;4.91;;;;;;;;;;357625;148;857356;-60
2021/08/28 02:59:30;;;;;;;7.26;4.96;;;;;;;;;;356928;147;857199;-59
2021/08/28 03:00:32;;;;;;;8.84;5.01;;;;;;;;;;358055;148;857388;-61
2021/08/28 03:01:34;;;;;;;7.35;4.51;;;;;;;;;;358246;148;865117;-60
2021/08/28 03:02:35;;;;;;;8.22;4.85;;;;;;;;;;357600;147;857268;-61
2021/08/28 03:03:37;;;;;;;7.98;4.81;;;;;;;;;;357628;147;857227;-60
2021/08/28 03:04:38;;;;;;;5.29;4.15;;;;;;;;;;364377;147;857307;-60
2021/08/28 03:05:40;;;;;;;7.42;5.34;;;;;;;;;;356534;147;865525;-59
2021/08/28 03:06:42;;;;;;;7.29;4.37;;;;;;;;;;356793;149;857414;-60
2021/08/28 03:07:44;;;;;;;10.33;4.81;;;;;;;;;;357600;147;857303;-59
2021/08/28 03:08:45;;;;;;;10.47;4.92;;;;;;;;;;359269;149;858900;-59
2021/08/28 03:09:47;;;;;;;11.44;4.59;;;;;;;;;;356582;147;857369;-60
2021/08/28 03:10:50;;;;;;;8.61;4.39;;;;;;;;;;356667;150;859591;-59
2021/08/28 03:11:51;;;;;;;9.00;4.47;;;;;;;;;;357261;150;857458;-60
2021/08/28 03:12:53;;;;;;;9.86;5.00;;;;;;;;;;356244;149;857155;-59
2021/08/28 03:13:54;;;;;;;7.48;4.74;;;;;;;;;;355786;149;857182;-59
2021/08/28 03:14:56;;;;;;;7.64;4.54;;;;;;;;;;354409;149;857196;-59
2021/08/28 03:15:58;;;;;;;6.91;4.97;;;;;;;;;;353787;150;857154;-59
2021/08/28 03:17:00;;;;;;;7.17;4.64;;;;;;;;;;357078;149;857229;-58
2021/08/28 03:18:01;;;;;;;6.25;4.63;;;;;;;;;;352208;149;857229;-60
2021/08/28 03:19:03;;;;;;;6.98;4.36;;;;;;;;;;355551;150;857319;-59
2021/08/28 03:20:06;;;;;;;8.52;4.71;;;;;;;;;;357064;149;857189;-59
2021/08/28 03:21:07;;;;;;;7.57;4.69;;;;;;;;;;355847;148;858926;-59
2021/08/28 03:22:09;;;;;;;6.27;4.61;;;;;;;;;;355771;150;857186;-58
2021/08/28 03:23:11;;;;;;;7.89;4.76;;;;;;;;;;356528;148;857223;-59
2021/08/28 03:24:12;;;;;;;8.04;4.84;;;;;;;;;;356086;149;864929;-58
2021/08/28 03:25:14;;;;;;;6.70;4.64;;;;;;;;;;355422;151;864949;-58
2021/08/28 03:26:18;;;;;;;6.76;4.41;;;;;;;;;;355140;150;858058;-61
2021/08/28 03:27:19;;;;;;;7.79;4.38;;;;;;;;;;357690;148;858265;-59
2021/08/28 03:28:21;;;;;;;6.23;4.36;;;;;;;;;;356933;148;859137;-59
2021/08/28 03:29:23;;;;;;;5.76;4.05;;;;;;;;;;359061;150;859050;-59
2021/08/28 03:30:25;;;;;;;7.47;4.81;;;;;;;;;;356949;148;858198;-59
2021/08/28 03:31:27;;;;;;;7.82;4.29;;;;;;;;;;356362;148;858748;-58
2021/08/28 03:32:28;;;;;;;5.56;4.08;;;;;;;;;;355278;149;857894;-57
2021/08/28 03:33:31;;;;;;;6.84;4.25;;;;;;;;;;355740;148;857355;-59
2021/08/28 03:34:32;;;;;;;7.56;4.75;;;;;;;;;;357475;148;857199;-60
2021/08/28 03:35:34;;;;;;;6.24;4.45;;;;;;;;;;354611;149;857092;-60
2021/08/28 03:36:36;;;;;;;7.31;4.27;;;;;;;;;;355614;149;857276;-59
2021/08/28 03:37:40;;;;;;;6.56;4.61;;;;;;;;;;356257;149;857252;-58
2021/08/28 03:38:42;;;;;;;5.80;4.26;;;;;;;;;;356240;149;865576;-60
2021/08/28 03:39:44;;;;;;;7.31;4.91;;;;;;;;;;356679;149;866519;-60
2021/08/28 03:40:46;;;;;;;7.41;4.81;;;;;;;;;;355785;149;857347;-60
2021/08/28 03:41:47;;;;;;;6.86;3.98;;;;;;;;;;356710;149;857409;-59
2021/08/28 03:42:49;;;;;;;5.80;4.02;;;;;;;;;;355669;148;857329;-59
2021/08/28 03:43:51;;;;;;;10.22;4.24;;;;;;;;;;353767;150;857236;-59
2021/08/28 03:44:55;;;;;;;5.63;4.34;;;;;;;;;;355665;149;857209;-59
2021/08/28 03:45:56;;;;;;;8.40;4.16;;;;;;;;;;350451;152;857107;-59
2021/08/28 03:46:58;;;;;;;8.44;4.48;;;;;;;;;;349432;153;857255;-60
2021/08/28 03:48:00;;;;;;;7.02;4.52;;;;;;;;;;350141;151;857206;-59
2021/08/28 03:49:02;;;;;;;5.71;4.25;;;;;;;;;;346996;151;859134;-61
2021/08/28 03:50:04;;;;;;;6.86;4.15;;;;;;;;;;347360;154;858899;-60
2021/08/28 03:51:05;;;;;;;5.39;4.22;;;;;;;;;;348760;154;865685;-62
2021/08/28 03:52:07;;;;;;;7.07;4.15;;;;;;;;;;348740;151;860403;-60
2021/08/28 03:53:08;;;;;;;6.84;4.32;;;;;;;;;;347223;153;857237;-59
2021/08/28 03:54:10;;;;;;;7.02;4.30;;;;;;;;;;347091;155;857322;-59
2021/08/28 03:55:12;;;;;;;5.98;4.19;;;;;;;;;;348102;152;857328;-58
2021/08/28 03:56:13;;;;;;;5.04;4.06;;;;;;;;;;347772;153;858594;-59
2021/08/28 03:57:15;;;;;;;7.02;4.31;;;;;;;;;;347920;154;864759;-59
2021/08/28 03:58:16;;;;;;;6.11;4.01;;;;;;;;;;347297;153;857268;-59
2021/08/28 03:59:18;;;;;;;10.79;4.71;;;;;;;;;;341704;155;857321;-59
2021/08/28 04:00:20;;;;;;;8.41;4.19;;;;;;;;;;343381;154;857342;-58
2021/08/28 04:01:22;;;;;;;5.19;4.29;;;;;;;;;;348135;151;857372;-59
2021/08/28 04:02:23;;;;;;;6.95;3.97;;;;;;;;;;347144;151;857325;-58
2021/08/28 04:03:25;;;;;;;7.16;4.74;;;;;;;;;;348248;151;857914;-59
2021/08/28 04:04:27;;;;;;;5.62;4.29;;;;;;;;;;348761;151;859057;-60
2021/08/28 04:05:28;;;;;;;6.37;4.17;;;;;;;;;;350546;151;858299;-58
2021/08/28 04:06:31;;;;;;;6.16;4.13;;;;;;;;;;346253;151;858687;-59
2021/08/28 04:07:34;;;;;;;5.74;4.62;;;;;;;;;;349183;152;858649;-59
2021/08/28 04:08:36;;;;;;;5.64;4.26;;;;;;;;;;349979;151;857229;-59
2021/08/28 04:09:37;;;;;;;7.09;4.54;;;;;;;;;;347517;152;858143;-59
2021/08/28 04:10:41;;;;;;;7.76;4.33;;;;;;;;;;348371;151;864976;-59
2021/08/28 04:11:44;;;;;;;6.02;4.40;;;;;;;;;;350882;153;859072;-60
2021/08/28 04:12:46;;;;;;;5.29;4.23;;;;;;;;;;348518;151;864112;-60
2021/08/28 04:13:47;;;;;;;6.21;4.44;;;;;;;;;;346732;154;857321;-60
2021/08/28 04:14:49;;;;;;;7.25;4.73;;;;;;;;;;350442;151;858275;-60
2021/08/28 04:15:51;;;;;;;10.41;5.57;;;;;;;;;;350222;151;859195;-59
2021/08/28 04:16:53;;;;;;;9.82;4.35;;;;;;;;;;349643;151;859292;-60
2021/08/28 04:17:54;;;;;;;7.31;4.50;;;;;;;;;;352161;151;858424;-59
2021/08/28 04:18:56;;;;;;;7.41;4.61;;;;;;;;;;349267;152;864694;-59
2021/08/28 04:19:58;;;;;;;9.66;4.62;;;;;;;;;;348563;151;857309;-61
2021/08/28 04:20:59;;;;;;;7.04;4.66;;;;;;;;;;348769;153;857240;-60
2021/08/28 04:22:01;;;;;;;6.29;4.53;;;;;;;;;;348927;151;865222;-60
2021/08/28 04:23:03;;;;;;;7.49;4.34;;;;;;;;;;349760;151;857768;-61
2021/08/28 04:24:04;;;;;;;6.92;4.13;;;;;;;;;;342756;154;858859;-60
2021/08/28 04:25:06;;;;;;;6.60;4.46;;;;;;;;;;340774;154;865604;-62
2021/08/28 04:26:09;;;;;;;8.60;4.76;;;;;;;;;;349401;151;858214;-61
2021/08/28 04:27:10;;;;;;;6.44;4.49;;;;;;;;;;349045;151;868071;-60
2021/08/28 04:28:12;;;;;;;7.71;4.81;;;;;;;;;;349620;151;865836;-59
2021/08/28 04:29:13;;;;;;;5.94;4.09;;;;;;;;;;349717;151;857224;-59
2021/08/28 04:30:16;;;;;;;4.93;4.26;;;;;;;;;;348433;151;857187;-61
2021/08/28 04:31:17;;;;;;;6.60;4.47;;;;;;;;;;348762;151;857249;-62
2021/08/28 04:32:19;;;;;;;6.04;4.18;;;;;;;;;;349278;151;859083;-61
2021/08/28 04:33:20;;;;;;;7.46;4.36;;;;;;;;;;350487;151;860671;-61
2021/08/28 04:34:22;;;;;;;5.41;4.36;;;;;;;;;;349148;151;859380;-62
2021/08/28 04:35:23;;;;;;;6.03;4.34;;;;;;;;;;348905;152;859753;-61
2021/08/28 04:36:27;;;;;;;6.32;4.57;;;;;;;;;;347841;151;860483;-63
2021/08/28 04:37:28;;;;;;;6.84;4.61;;;;;;;;;;347261;152;856531;-62
2021/08/28 04:38:30;;;;;;;5.09;4.21;;;;;;;;;;341012;155;866550;-61
2021/08/28 04:39:32;;;;;;;7.38;4.96;;;;;;;;;;342509;156;859196;-62
2021/08/28 04:40:36;;;;;;;8.09;4.21;;;;;;;;;;349674;153;857306;-59
2021/08/28 04:41:38;;;;;;;7.06;4.51;;;;;;;;;;348552;153;858255;-61
2021/08/28 04:42:40;;;;;;;7.36;4.67;;;;;;;;;;343687;156;857448;-61
2021/08/28 04:43:41;;;;;;;6.45;4.34;;;;;;;;;;341872;154;857293;-59
2021/08/28 04:44:43;;;;;;;7.51;4.37;;;;;;;;;;342340;155;857164;-62
2021/08/28 04:45:44;;;;;;;7.40;4.63;;;;;;;;;;349466;152;857206;-59
2021/08/28 04:46:46;;;;;;;5.97;4.75;;;;;;;;;;349015;152;857300;-58
2021/08/28 04:47:48;;;;;;;6.94;4.84;;;;;;;;;;348893;151;857299;-59
2021/08/28 04:48:49;;;;;;;7.15;4.58;;;;;;;;;;348254;152;857304;-59
2021/08/28 04:49:51;;;;;;;6.04;4.11;;;;;;;;;;349039;152;857372;-62
2021/08/28 04:50:53;;;;;;;6.95;4.93;;;;;;;;;;348297;154;858853;-60
2021/08/28 04:51:54;;;;;;;6.51;4.54;;;;;;;;;;349395;152;857222;-59
2021/08/28 04:52:56;;;;;;;7.72;4.76;;;;;;;;;;349957;152;864724;-60
2021/08/28 04:53:57;;;;;;;5.80;4.43;;;;;;;;;;350296;152;857262;-60
2021/08/28 04:54:59;;;;;;;7.36;5.08;;;;;;;;;;350666;152;857308;-59
2021/08/28 05:09:57;;;;;;;7.57;4.55;;;;;;;17.70;65.46;99501.70;374574;141;871660;-59
2021/08/28 05:11:01;;;;;;;6.41;4.76;;;;;;;17.61;65.38;99516.07;366060;144;859400;-60
2021/08/28 05:12:04;;;;;;;13.13;4.78;;;;;;;17.59;66.28;99517.91;367283;144;858914;-59
2021/08/28 05:13:05;;;;;;;7.81;4.78;;;;;;;17.58;66.18;99509.19;365915;144;858464;-60
2021/08/28 05:14:07;;;;;;;11.90;4.69;;;;;;;17.60;66.12;99506.52;369019;144;859106;-59
2021/08/28 05:15:10;;;;;;;7.98;4.65;;;;;;;17.64;65.90;99503.67;366648;144;867476;-60
2021/08/28 05:16:14;;;;;;;6.35;4.66;;;;;;;17.70;65.86;99504.33;366780;144;865982;-60
2021/08/28 05:17:15;;;;;;;7.92;4.78;;;;;;;17.76;66.01;99507.53;369100;144;864869;-59
2021/08/28 05:18:17;;;;;;;9.89;4.79;;;;;;;17.83;66.63;99500.23;365715;144;866705;-59
2021/08/28 05:19:19;;;;;;;7.80;4.84;;;;;;;17.89;66.77;99505.19;365837;144;865837;-59
2021/08/28 05:20:22;;;;;;;7.89;4.69;;;;;;;17.94;66.81;99497.14;367472;144;865235;-59
2021/08/28 05:21:24;;;;;;;6.35;4.94;;;;;;;18.00;66.69;99502.12;365909;144;857373;-60
2021/08/28 05:22:26;;;;;;;7.86;5.14;;;;;;;18.02;65.83;99489.81;370799;144;867112;-59
2021/08/28 05:23:27;;;;;;;9.54;5.11;;;;;;;18.02;65.83;99489.81;368399;144;866552;-60
2021/08/28 05:24:31;;;;;;;11.49;5.16;;;;;;;;;;367368;144;864943;-59
2021/08/28 05:25:33;;;;;;;9.92;5.20;;;;;;;;;;367913;144;857102;-59
2021/08/28 05:26:35;;;;;;;7.49;4.66;;;;;;;;;;366323;144;857097;-60
2021/08/28 05:27:36;;;;;;;6.34;4.87;;;;;;;;;;366912;144;857175;-59
2021/08/28 05:28:38;;;;;;;6.85;5.04;;;;;;;;;;362192;144;857291;-60
2021/08/28 05:29:39;;;;;;;5.61;4.25;;;;;;;;;;359300;150;866579;-60
2021/08/28 05:30:41;;;;;;;6.72;4.83;;;;;;;;;;361242;147;858961;-59
2021/08/28 05:31:44;;;;;;;10.55;5.01;;;;;;;;;;361856;145;858954;-59
2021/08/28 05:32:45;;;;;;;7.11;4.71;;;;;;;;;;359890;147;858658;-58
2021/08/28 05:33:47;;;;;;;8.76;4.87;;;;;;;;;;362277;147;857308;-59
2021/08/28 05:34:49;;;;;;;6.24;4.20;;;;;;;;;;360968;145;857379;-59
2021/08/28 05:35:51;;;;;;;9.15;4.69;;;;;;;;;;367558;144;859523;-59
2021/08/28 05:36:53;;;;;;;6.23;4.60;;;;;;;;;;359352;150;858074;-59
2021/08/28 05:37:54;;;;;;;6.70;4.83;;;;;;;;;;361617;144;858604;-59
2021/08/28 05:38:56;;;;;;;5.99;4.49;;;;;;;;;;360386;146;857350;-59
2021/08/28 05:39:58;;;;;;;8.77;4.37;;;;;;;;;;359299;147;857697;-60
2021/08/28 05:41:00;;;;;;;5.50;4.30;;;;;;;;;;359145;148;857286;-60
2021/08/28 05:42:02;;;;;;;10.61;4.87;;;;;;;;;;359511;146;860072;-59
2021/08/28 05:43:03;;;;;;;10.43;4.86;;;;;;;;;;363321;145;859528;-59
2021/08/28 05:44:05;;;;;;;8.59;5.13;;;;;;;;;;356031;148;864872;-58
2021/08/28 05:45:07;;;;;;;7.68;4.96;;;;;;;;;;359548;147;857676;-58
2021/08/28 05:46:09;;;;;;;8.89;4.84;;;;;;;;;;360351;146;857580;-59
2021/08/28 05:47:11;;;;;;;6.75;4.45;;;;;;;;;;360218;147;857214;-60
2021/08/28 05:48:12;;;;;;;6.67;4.81;;;;;;;;;;360235;147;857427;-60
2021/08/28 05:49:14;;;;;;;7.49;4.61;;;;;;;;;;360503;147;857260;-60
2021/08/28 05:50:16;;;;;;;7.65;4.92;;;;;;;;;;365037;144;858766;-60
2021/08/28 05:51:19;;;;;;;8.61;4.85;;;;;;;;;;364199;147;857227;-60
2021/08/28 05:52:21;;;;;;;9.11;5.20;;;;;;;;;;360524;144;867412;-61
2021/08/28 05:53:23;;;;;;;7.42;4.46;;;;;;;;;;366548;144;857305;-59
2021/08/28 05:54:24;;;;;;;7.61;4.67;;;;;;;;;;361221;147;867275;-59
2021/08/28 05:55:26;;;;;;;6.58;4.41;;;;;;;;;;362738;145;857393;-59
2021/08/28 05:56:28;;;;;;;5.54;4.35;;;;;;;;;;359891;146;858188;-60
2021/08/28 05:57:29;;;;;;;8.04;4.84;;;;;;;;;;360096;144;858210;-60
2021/08/28 05:58:31;;;;;;;6.63;4.71;;;;;;;;;;359688;147;857302;-59
2021/08/28 05:59:32;;;;;;;6.76;5.09;;;;;;;;;;361092;145;857324;-59
2021/08/28 06:00:34;;;;;;;7.15;4.76;;;;;;;;;;360940;147;857270;-60
2021/08/28 06:01:37;;;;;;;6.34;4.45;;;;;;;;;;363530;144;859979;-59
2021/08/28 06:02:39;;;;;;;5.49;4.24;;;;;;;;;;356280;148;859091;-60
2021/08/28 06:03:41;;;;;;;6.34;4.62;;;;;;;;;;360954;146;858774;-59
2021/08/28 06:04:42;;;;;;;8.09;4.26;;;;;;;;;;360487;145;857442;-60
2021/08/28 06:05:46;;;;;;;7.79;5.07;;;;;;;;;;360972;144;857221;-59
2021/08/28 06:06:48;;;;;;;8.03;4.53;;;;;;;;;;360877;144;857252;-59
2021/08/28 06:07:49;;;;;;;8.90;4.18;;;;;;;;;;360597;144;865451;-57
2021/08/28 06:08:51;;;;;;;7.11;4.42;;;;;;;;;;356396;149;857248;-58
2021/08/28 06:09:52;;;;;;;7.12;4.40;;;;;;;;;;358511;145;857699;-58
2021/08/28 06:10:54;;;;;;;9.70;4.81;;;;;;;;;;356071;147;858674;-59
2021/08/28 06:11:56;;;;;;;5.18;4.06;;;;;;;;;;356464;150;865341;-57
2021/08/28 06:12:58;;;;;;;6.76;4.23;;;;;;;;;;356648;147;859464;-59
2021/08/28 06:13:59;;;;;;;5.87;4.21;;;;;;;;;;356937;147;859229;-59
2021/08/28 06:15:01;;;;;;;10.66;4.87;;;;;;;;;;358917;148;858806;-59
2021/08/28 06:16:03;;;;;;;6.51;4.61;;;;;;;;;;356357;147;859229;-59
2021/08/28 06:17:05;;;;;;;7.58;4.27;;;;;;;;;;356144;148;857292;-58
2021/08/28 06:18:07;;;;;;;7.03;4.32;;;;;;;;;;349186;151;857735;-59
2021/08/28 06:19:09;;;;;;;6.59;4.50;;;;;;;;;;341525;154;859338;-60
2021/08/28 06:20:11;;;;;;;8.75;4.50;;;;;;;;;;353056;150;857259;-59
2021/08/28 06:21:13;;;;;;;7.01;4.25;;;;;;;;;;356367;148;857349;-59